Time;durP1;ratioP1;P1;durP2;ratioP2;P2;SDS_P1;SDS_P2;PMS_P1;PMS_P2;Temp;Humidity;BMP_temperature;BMP_pressure;BME280_temperature;BME280_humidity;BME280_pressure;Samples;Min_cycle;Max_cycle;Signal;HPM_P1;HPM_P2
2021/07/08 00:00:34;;;;;;;4.43;3.07;;;17.20;99.90;;;;;;5075660;28;20194;-76
2021/07/08 00:03:00;;;;;;;4.10;3.10;;;17.10;99.90;;;;;;5075963;28;20172;-76
2021/07/08 00:05:27;;;;;;;4.17;3.23;;;16.90;99.90;;;;;;5057888;28;20180;-76
2021/07/08 00:07:56;;;;;;;4.93;3.67;;;16.90;99.90;;;;;;5075656;28;20182;-75
2021/07/08 00:10:28;;;;;;;5.17;4.00;;;17.00;99.90;;;;;;5074405;28;20267;-75
2021/07/08 00:12:54;;;;;;;6.23;4.20;;;17.00;99.90;;;;;;5075683;28;20238;-75
2021/07/08 00:15:20;;;;;;;6.27;4.23;;;17.00;99.90;;;;;;5057528;28;20179;-76
2021/07/08 00:17:48;;;;;;;4.57;4.10;;;17.00;99.90;;;;;;5057461;28;20289;-75
2021/07/08 00:20:17;;;;;;;4.60;4.20;;;17.00;99.90;;;;;;5057707;28;20627;-75
2021/07/08 00:22:43;;;;;;;4.47;4.17;;;17.00;99.90;;;;;;5076445;28;20181;-75
2021/07/08 00:25:11;;;;;;;5.27;4.73;;;16.90;99.90;;;;;;5075272;28;20255;-76
2021/07/08 00:27:37;;;;;;;5.60;5.10;;;16.90;99.90;;;;;;5057253;28;20554;-76
2021/07/08 00:30:05;;;;;;;6.33;5.13;;;17.00;99.90;;;;;;5075197;28;20199;-76
2021/07/08 00:32:31;;;;;;;7.73;7.13;;;17.00;99.90;;;;;;5074975;28;20219;-76
2021/07/08 00:34:56;;;;;;;8.00;7.30;;;16.90;99.90;;;;;;5075329;28;20208;-75
2021/07/08 00:37:22;;;;;;;10.50;9.50;;;16.80;99.90;;;;;;5074970;28;20207;-76
2021/07/08 00:39:48;;;;;;;9.60;8.80;;;16.70;99.90;;;;;;5075164;28;20229;-76
2021/07/08 00:42:13;;;;;;;12.17;10.97;;;16.70;99.90;;;;;;5075064;28;20170;-76
2021/07/08 00:44:39;;;;;;;12.50;11.40;;;16.70;99.90;;;;;;5074946;28;20173;-76
2021/07/08 00:47:05;;;;;;;11.97;10.73;;;16.70;99.90;;;;;;5074941;28;20228;-76
2021/07/08 00:49:31;;;;;;;11.40;10.50;;;16.70;99.90;;;;;;5056457;28;20186;-76
2021/07/08 00:51:57;;;;;;;13.80;10.23;;;16.80;99.90;;;;;;5061015;28;20211;-76
2021/07/08 00:54:23;;;;;;;11.83;9.33;;;16.80;99.90;;;;;;5075004;28;20182;-75
2021/07/08 00:56:48;;;;;;;10.17;8.73;;;16.70;99.90;;;;;;5074629;28;20178;-75
2021/07/08 00:59:14;;;;;;;9.00;8.27;;;16.70;99.90;;;;;;5074622;28;20283;-76
2021/07/08 01:01:40;;;;;;;9.57;8.77;;;16.70;99.90;;;;;;5074518;28;20198;-76
2021/07/08 01:04:07;;;;;;;9.67;8.90;;;16.80;99.90;;;;;;5056648;28;20175;-76
2021/07/08 01:06:34;;;;;;;10.23;9.23;;;16.90;99.90;;;;;;5074799;28;20524;-76
2021/07/08 01:09:01;;;;;;;10.53;9.73;;;16.90;99.90;;;;;;5056454;28;20183;-76
2021/07/08 01:11:27;;;;;;;10.97;9.97;;;16.80;99.90;;;;;;5056513;28;20203;-76
2021/07/08 01:13:53;;;;;;;10.33;9.50;;;16.80;99.90;;;;;;5074358;28;20203;-76
2021/07/08 01:16:19;;;;;;;10.73;9.73;;;16.80;99.90;;;;;;5074292;28;20601;-75
2021/07/08 01:18:45;;;;;;;10.90;10.00;;;16.80;99.90;;;;;;5056263;28;20692;-76
2021/07/08 01:21:28;;;;;;;11.63;10.53;;;16.90;99.90;;;;;;5055797;28;20194;-75
2021/07/08 01:23:55;;;;;;;9.73;8.83;;;17.00;99.90;;;;;;5072281;28;20176;-75
2021/07/08 01:26:21;;;;;;;10.73;9.73;;;16.90;99.90;;;;;;5074074;28;20206;-75
2021/07/08 01:28:53;;;;;;;11.83;10.47;;;16.90;99.90;;;;;;5073893;28;20200;-76
2021/07/08 01:31:19;;;;;;;11.33;10.37;;;16.90;99.90;;;;;;5056078;28;20207;-76
2021/07/08 01:33:45;;;;;;;12.03;10.80;;;16.90;99.90;;;;;;5073946;28;20663;-76
2021/07/08 01:36:12;;;;;;;11.43;10.43;;;16.90;99.90;;;;;;5055993;28;20183;-75
2021/07/08 01:38:38;;;;;;;10.97;10.10;;;16.90;99.90;;;;;;5073719;28;20289;-75
2021/07/08 01:41:05;;;;;;;10.63;9.47;;;16.90;99.90;;;;;;5055733;28;20678;-75
2021/07/08 01:43:38;;;;;;;11.37;10.37;;;16.80;99.90;;;;;;5055719;28;20657;-75
2021/07/08 01:46:08;;;;;;;11.03;10.13;;;16.90;99.90;;;;;;5074077;28;20223;-75
2021/07/08 01:48:35;;;;;;;10.60;9.80;;;17.00;99.90;;;;;;5073494;28;20182;-75
2021/07/08 01:51:13;;;;;;;11.90;10.80;;;17.00;99.90;;;;;;5073712;28;20245;-76
2021/07/08 01:53:38;;;;;;;12.60;11.40;;;17.00;99.90;;;;;;5072778;28;20171;-76
2021/07/08 01:56:04;;;;;;;11.80;10.80;;;17.00;99.90;;;;;;5071542;28;20555;-76
2021/07/08 01:58:30;;;;;;;12.00;10.90;;;17.00;99.90;;;;;;5054134;28;20204;-76
2021/07/08 02:00:55;;;;;;;10.90;9.97;;;17.00;99.90;;;;;;5073459;28;20201;-75
2021/07/08 02:03:21;;;;;;;11.67;10.63;;;17.00;99.90;;;;;;5072571;28;20537;-75
2021/07/08 02:09:09;;;;;;;10.70;9.80;;;16.90;99.90;;;;;;5073257;28;20188;-75
2021/07/08 02:11:34;;;;;;;11.37;10.20;;;16.90;99.90;;;;;;5048634;28;20210;-75
2021/07/08 02:14:00;;;;;;;11.50;10.47;;;17.00;99.90;;;;;;5072059;28;20176;-76
2021/07/08 02:16:26;;;;;;;11.60;10.70;;;17.00;99.90;;;;;;5043359;28;20179;-76
2021/07/08 02:18:52;;;;;;;11.37;10.23;;;17.00;99.90;;;;;;5066002;28;20201;-75
2021/07/08 02:21:19;;;;;;;11.87;10.77;;;17.00;99.90;;;;;;5066547;28;20212;-75
2021/07/08 02:23:44;;;;;;;12.40;11.30;;;17.00;99.90;;;;;;5072723;28;20183;-76
2021/07/08 02:26:10;;;;;;;13.00;11.83;;;17.00;99.90;;;;;;5069400;28;20181;-75
2021/07/08 02:28:37;;;;;;;13.13;12.03;;;17.10;99.90;;;;;;5064364;28;20206;-76
2021/07/08 02:31:03;;;;;;;13.53;12.13;;;17.10;99.90;;;;;;5055037;28;20200;-75
2021/07/08 02:33:29;;;;;;;12.43;11.43;;;17.10;99.90;;;;;;5072393;28;20209;-75
2021/07/08 02:35:55;;;;;;;12.03;11.03;;;17.10;99.90;;;;;;5073194;28;20239;-75
2021/07/08 02:38:21;;;;;;;13.40;12.13;;;17.10;99.90;;;;;;5069238;28;20682;-75
2021/07/08 02:40:47;;;;;;;12.27;11.13;;;17.00;99.90;;;;;;5054986;28;20244;-76
2021/07/08 02:43:13;;;;;;;12.13;11.03;;;17.00;99.90;;;;;;5073045;28;20177;-75
2021/07/08 02:45:41;;;;;;;12.47;11.37;;;17.00;99.90;;;;;;5072989;28;20616;-75
2021/07/08 02:48:09;;;;;;;12.40;11.33;;;16.90;99.90;;;;;;5073276;28;20233;-76
2021/07/08 02:50:37;;;;;;;11.83;10.93;;;16.90;99.90;;;;;;5072915;28;20231;-75
2021/07/08 02:53:03;;;;;;;12.30;11.27;;;16.90;99.90;;;;;;5055006;28;20183;-74
2021/07/08 02:55:30;;;;;;;12.87;11.83;;;16.80;99.90;;;;;;5073028;28;20578;-75
2021/07/08 02:57:56;;;;;;;13.83;12.60;;;16.80;99.90;;;;;;5051051;28;20670;-75
2021/07/08 03:00:23;;;;;;;13.20;12.00;;;16.80;99.90;;;;;;5072860;28;20201;-76
2021/07/08 03:02:50;;;;;;;14.03;12.73;;;16.90;99.90;;;;;;5072780;28;20207;-76
2021/07/08 03:05:16;;;;;;;13.33;12.03;;;16.90;99.90;;;;;;5054865;28;20188;-75
2021/07/08 03:07:42;;;;;;;13.30;12.30;;;17.00;99.90;;;;;;5072793;28;20178;-75
2021/07/08 03:10:11;;;;;;;15.60;13.93;;;17.00;99.90;;;;;;5072747;28;20570;-75
2021/07/08 03:12:37;;;;;;;15.07;13.77;;;17.00;99.90;;;;;;5054733;28;20180;-75
2021/07/08 03:15:06;;;;;;;12.90;11.60;;;17.10;99.90;;;;;;5054784;28;20186;-75
2021/07/08 03:17:31;;;;;;;11.97;11.07;;;17.10;99.90;;;;;;5072521;28;20191;-75
2021/07/08 03:19:57;;;;;;;11.47;10.57;;;17.10;99.90;;;;;;5069462;28;20197;-76
2021/07/08 03:22:23;;;;;;;11.63;10.73;;;17.20;99.90;;;;;;5064851;28;20233;-76
2021/07/08 03:24:48;;;;;;;11.90;10.87;;;17.20;99.90;;;;;;5054665;28;20229;-75
2021/07/08 03:27:14;;;;;;;11.17;10.03;;;17.20;99.90;;;;;;5072655;28;20187;-76
2021/07/08 03:29:40;;;;;;;11.77;10.57;;;17.20;99.90;;;;;;5072465;28;20188;-76
2021/07/08 03:32:07;;;;;;;11.70;10.53;;;17.20;99.90;;;;;;5072497;28;20633;-76
2021/07/08 03:34:32;;;;;;;11.87;10.87;;;17.20;99.90;;;;;;5072616;28;20183;-76
2021/07/08 03:36:58;;;;;;;12.67;11.47;;;17.20;99.90;;;;;;5065836;28;20200;-76
2021/07/08 03:39:24;;;;;;;12.93;11.73;;;17.20;99.90;;;;;;5065473;28;20203;-76
2021/07/08 03:41:49;;;;;;;13.03;11.87;;;17.20;99.90;;;;;;5071886;28;20180;-76
2021/07/08 03:44:15;;;;;;;14.20;12.97;;;17.20;99.90;;;;;;5052028;28;20188;-76
2021/07/08 03:46:40;;;;;;;12.70;11.60;;;17.20;99.90;;;;;;5068896;28;20185;-76
2021/07/08 03:49:06;;;;;;;14.27;12.73;;;17.20;99.90;;;;;;5058159;28;20272;-76
2021/07/08 03:51:32;;;;;;;15.83;11.53;;;17.20;99.90;;;;;;5075880;28;20196;-76
2021/07/08 03:53:58;;;;;;;12.53;11.47;;;17.10;99.90;;;;;;5075981;28;20186;-76
2021/07/08 03:56:23;;;;;;;12.70;11.70;;;17.10;99.90;;;;;;5072055;28;20211;-76
2021/07/08 03:58:49;;;;;;;11.93;10.80;;;17.00;99.90;;;;;;5057782;28;20200;-76
2021/07/08 04:01:14;;;;;;;12.30;11.20;;;17.00;99.90;;;;;;5054426;28;20275;-76
2021/07/08 04:03:40;;;;;;;12.17;11.20;;;17.00;99.90;;;;;;5082752;28;20700;-76
2021/07/08 04:06:06;;;;;;;12.37;11.27;;;17.00;99.90;;;;;;5068891;28;20177;-77
2021/07/08 04:08:31;;;;;;;11.73;10.67;;;17.00;99.90;;;;;;5052937;28;20223;-76
2021/07/08 04:10:57;;;;;;;11.97;10.87;;;16.90;99.90;;;;;;5062892;28;20293;-76
2021/07/08 04:13:23;;;;;;;12.10;11.10;;;17.00;99.90;;;;;;5056647;28;20188;-77
2021/07/08 04:15:50;;;;;;;12.00;10.87;;;16.90;99.90;;;;;;5059321;28;20234;-77
2021/07/08 04:18:18;;;;;;;11.53;10.43;;;16.90;99.90;;;;;;5058825;28;20234;-77
2021/07/08 04:20:45;;;;;;;10.50;9.60;;;16.90;99.90;;;;;;5063303;28;20205;-77
2021/07/08 04:23:11;;;;;;;9.83;9.13;;;17.00;99.90;;;;;;5060862;28;20702;-77
2021/07/08 04:25:38;;;;;;;8.60;7.70;;;17.00;99.90;;;;;;5060545;28;20195;-77
2021/07/08 04:28:04;;;;;;;8.23;7.13;;;17.00;99.90;;;;;;5058063;28;20183;-77
2021/07/08 04:30:30;;;;;;;8.67;7.87;;;17.00;99.90;;;;;;5050405;28;20738;-77
2021/07/08 04:32:56;;;;;;;9.40;8.40;;;17.00;99.90;;;;;;5061822;28;20357;-77
2021/07/08 04:35:44;;;;;;;9.13;7.97;;;16.90;99.90;;;;;;5065142;28;20674;-77
2021/07/08 04:38:09;;;;;;;7.83;7.13;;;16.80;99.90;;;;;;5056545;28;20223;-77
2021/07/08 04:40:36;;;;;;;6.87;6.27;;;16.80;99.90;;;;;;5057081;28;20286;-77
2021/07/08 04:43:03;;;;;;;7.30;6.60;;;16.80;99.90;;;;;;5060541;28;20179;-77
2021/07/08 04:45:31;;;;;;;6.77;6.27;;;16.80;99.90;;;;;;5043751;28;20183;-77
2021/07/08 04:47:57;;;;;;;7.50;6.87;;;16.80;99.90;;;;;;5062383;28;20254;-78
2021/07/08 04:50:24;;;;;;;7.53;6.40;;;16.90;99.90;;;;;;5059086;28;20211;-77
2021/07/08 04:52:51;;;;;;;7.43;6.37;;;16.90;99.90;;;;;;5069361;28;20182;-77
2021/07/08 04:55:19;;;;;;;7.10;6.60;;;16.90;99.90;;;;;;5073147;28;20265;-77
2021/07/08 04:57:48;;;;;;;6.17;5.70;;;16.90;99.90;;;;;;5073733;28;20260;-77
2021/07/08 05:00:15;;;;;;;6.50;5.97;;;16.90;99.90;;;;;;5055882;28;20192;-77
2021/07/08 05:02:42;;;;;;;6.80;6.10;;;16.90;99.90;;;;;;5073598;28;20187;-77
2021/07/08 05:05:10;;;;;;;9.00;8.13;;;17.00;99.90;;;;;;5067762;28;20178;-77
2021/07/08 05:07:37;;;;;;;8.93;7.20;;;17.00;99.90;;;;;;5073204;28;20190;-77
2021/07/08 05:10:06;;;;;;;11.23;7.50;;;17.00;99.90;;;;;;5055524;28;20201;-77
2021/07/08 05:12:31;;;;;;;9.40;8.47;;;16.90;99.90;;;;;;5055625;28;20659;-77
2021/07/08 05:14:57;;;;;;;11.53;9.33;;;16.90;99.90;;;;;;5055046;28;20232;-78
2021/07/08 05:17:23;;;;;;;11.80;10.73;;;16.90;99.90;;;;;;5073148;28;20222;-78
2021/07/08 05:19:49;;;;;;;12.23;11.13;;;16.80;99.90;;;;;;5072942;28;20198;-77
2021/07/08 05:22:18;;;;;;;11.90;10.80;;;16.90;99.90;;;;;;5074205;28;20533;-78
2021/07/08 05:24:44;;;;;;;14.43;11.90;;;16.90;99.90;;;;;;5059854;28;20184;-77
2021/07/08 05:27:16;;;;;;;13.47;12.17;;;17.00;99.90;;;;;;5053813;28;20585;-77
2021/07/08 05:29:45;;;;;;;12.43;11.33;;;17.00;99.90;;;;;;5073097;28;21051;-77
2021/07/08 05:32:13;;;;;;;12.13;10.77;;;17.00;99.90;;;;;;5073054;28;20579;-77
2021/07/08 05:34:39;;;;;;;13.47;11.33;;;17.00;99.90;;;;;;5073272;28;20195;-77
2021/07/08 05:37:05;;;;;;;12.83;11.10;;;17.00;99.90;;;;;;5073227;28;20191;-77
2021/07/08 05:39:30;;;;;;;15.17;10.47;;;17.10;99.90;;;;;;5044927;28;20287;-77
2021/07/08 05:41:56;;;;;;;12.43;10.03;;;17.00;99.90;;;;;;5068951;28;20353;-77
2021/07/08 05:44:22;;;;;;;8.47;7.77;;;17.00;99.90;;;;;;5072666;28;20269;-77
2021/07/08 05:46:47;;;;;;;8.63;7.93;;;17.00;99.90;;;;;;5060268;28;20198;-77
2021/07/08 05:49:13;;;;;;;8.77;8.07;;;17.00;99.90;;;;;;5073076;28;20181;-77
2021/07/08 05:51:39;;;;;;;7.60;7.00;;;16.90;99.90;;;;;;5054545;28;20204;-78
2021/07/08 05:54:04;;;;;;;7.87;7.27;;;16.90;99.90;;;;;;5072290;28;20201;-77
2021/07/08 05:56:30;;;;;;;8.30;7.43;;;16.90;99.90;;;;;;5072157;28;20185;-77
2021/07/08 05:58:56;;;;;;;8.30;7.50;;;16.90;99.90;;;;;;5073130;28;20224;-77
2021/07/08 06:01:21;;;;;;;8.90;7.97;;;17.00;99.90;;;;;;5055080;28;20199;-77
2021/07/08 06:03:48;;;;;;;9.60;8.60;;;17.00;99.90;;;;;;5072039;28;20226;-77
2021/07/08 06:06:17;;;;;;;9.47;8.57;;;17.10;99.90;;;;;;5053995;28;20220;-77
2021/07/08 06:08:44;;;;;;;9.07;8.23;;;17.10;99.90;;;;;;5072530;28;20199;-77
2021/07/08 06:11:10;;;;;;;9.60;8.70;;;17.10;99.90;;;;;;5073952;28;20203;-78
2021/07/08 06:13:36;;;;;;;10.30;9.50;;;17.10;99.90;;;;;;5058272;28;20239;-78
2021/07/08 06:16:03;;;;;;;10.17;9.30;;;17.20;99.90;;;;;;5075701;28;20191;-77
2021/07/08 06:18:29;;;;;;;9.10;8.40;;;17.20;99.90;;;;;;5074427;28;20767;-77
2021/07/08 06:20:54;;;;;;;8.10;7.40;;;17.20;99.90;;;;;;5074388;28;20191;-77
2021/07/08 06:23:21;;;;;;;8.60;8.00;;;17.10;99.90;;;;;;5058328;28;20578;-78
2021/07/08 06:25:48;;;;;;;9.13;8.10;;;17.10;99.90;;;;;;5059308;28;20182;-78
2021/07/08 06:31:35;;;;;;;9.50;8.70;;;17.10;99.90;;;;;;5074090;28;20246;-78
2021/07/08 06:34:01;;;;;;;8.37;7.53;;;17.20;99.90;;;;;;5064971;28;21244;-78
2021/07/08 06:36:27;;;;;;;8.63;7.83;;;17.20;99.90;;;;;;5104066;22;20291;-77
2021/07/08 06:38:52;;;;;;;9.23;7.13;;;17.20;99.90;;;;;;5107167;28;20208;-76
2021/07/08 06:41:18;;;;;;;8.47;7.70;;;17.20;99.90;;;;;;5112067;28;20656;-76
2021/07/08 06:43:44;;;;;;;9.17;7.70;;;17.20;99.90;;;;;;5095296;28;20181;-75
2021/07/08 06:46:16;;;;;;;8.57;7.97;;;17.20;99.90;;;;;;5111082;28;20546;-75
2021/07/08 06:48:41;;;;;;;9.10;8.27;;;17.20;99.90;;;;;;5093215;28;20203;-75
2021/07/08 06:51:07;;;;;;;10.10;9.20;;;17.20;99.90;;;;;;5092729;28;20219;-76
2021/07/08 06:53:32;;;;;;;9.80;9.00;;;17.20;99.90;;;;;;5074984;28;20267;-75
2021/07/08 06:55:58;;;;;;;10.10;9.40;;;17.20;99.90;;;;;;5091816;28;20567;-76
2021/07/08 06:58:24;;;;;;;9.07;8.27;;;17.20;99.90;;;;;;5072173;28;20190;-75
2021/07/08 07:00:49;;;;;;;10.80;9.93;;;17.20;99.90;;;;;;5079942;28;20173;-73
2021/07/08 07:03:15;;;;;;;13.23;12.03;;;17.20;99.90;;;;;;5072784;28;20203;-75
2021/07/08 07:05:40;;;;;;;14.87;13.57;;;17.10;99.90;;;;;;5080349;28;20210;-75
2021/07/08 07:08:06;;;;;;;13.40;12.20;;;17.10;99.90;;;;;;5092838;28;20568;-75
2021/07/08 07:10:32;;;;;;;14.00;12.73;;;17.10;99.90;;;;;;5093062;28;20180;-75
2021/07/08 07:13:00;;;;;;;14.27;12.97;;;17.20;99.90;;;;;;5092931;28;20644;-76
2021/07/08 07:15:28;;;;;;;15.40;13.90;;;17.20;99.90;;;;;;5074481;28;20177;-76
2021/07/08 07:17:54;;;;;;;16.33;14.63;;;17.20;99.90;;;;;;5092912;28;20218;-75
2021/07/08 07:20:20;;;;;;;17.63;15.20;;;17.20;99.90;;;;;;5096332;28;20660;-76
2021/07/08 07:22:50;;;;;;;20.97;18.83;;;17.20;99.90;;;;;;5096289;28;20207;-75
2021/07/08 07:25:20;;;;;;;20.97;18.83;;;17.30;99.90;;;;;;5096751;28;20296;-74
2021/07/08 07:27:49;;;;;;;23.20;20.80;;;17.30;99.90;;;;;;5096835;28;20661;-75
2021/07/08 07:30:14;;;;;;;23.97;20.80;;;17.20;99.90;;;;;;5096721;28;20547;-74
2021/07/08 07:32:40;;;;;;;22.17;19.97;;;17.30;99.90;;;;;;5096622;28;20184;-75
2021/07/08 07:35:06;;;;;;;23.10;20.70;;;17.30;99.90;;;;;;5078271;28;20556;-76
2021/07/08 07:37:32;;;;;;;23.93;21.50;;;17.30;99.90;;;;;;5095649;28;20230;-75
2021/07/08 07:39:58;;;;;;;23.73;21.43;;;17.30;99.90;;;;;;5096501;28;20261;-75
2021/07/08 07:42:24;;;;;;;24.60;21.97;;;17.30;99.90;;;;;;5096605;28;20251;-73
2021/07/08 07:44:50;;;;;;;21.67;19.37;;;17.30;99.90;;;;;;5096404;28;20648;-75
2021/07/08 07:47:16;;;;;;;20.67;18.63;;;17.20;99.90;;;;;;5096284;28;20217;-75
2021/07/08 07:49:43;;;;;;;22.00;19.70;;;17.20;99.90;;;;;;5094734;28;20210;-76
2021/07/08 07:52:12;;;;;;;23.23;20.80;;;17.30;99.90;;;;;;5094645;28;20213;-76
2021/07/08 07:54:39;;;;;;;22.10;19.70;;;17.40;99.90;;;;;;5076449;28;20631;-77
2021/07/08 07:57:05;;;;;;;18.23;16.53;;;17.40;99.90;;;;;;5094619;28;20607;-76
2021/07/08 07:59:32;;;;;;;15.23;14.03;;;17.40;99.90;;;;;;5076862;28;20659;-76
2021/07/08 08:01:58;;;;;;;14.33;13.30;;;17.30;99.90;;;;;;5096071;28;20183;-75
2021/07/08 08:04:28;;;;;;;13.90;12.70;;;17.40;99.90;;;;;;5095178;28;20177;-76
2021/07/08 08:09:38;;;;;;;13.83;12.67;;;17.40;99.90;;;;;;5093757;28;20197;-76
2021/07/08 08:12:04;;;;;;;14.50;13.30;;;17.40;99.90;;;;;;5077947;28;20178;-75
2021/07/08 08:14:30;;;;;;;13.07;10.77;;;17.40;99.90;;;;;;5093621;28;20177;-73
2021/07/08 08:16:57;;;;;;;11.30;10.47;;;17.40;99.90;;;;;;5075085;28;20302;-76
2021/07/08 08:19:23;;;;;;;10.10;9.40;;;17.40;99.90;;;;;;5093760;28;20190;-74
2021/07/08 08:21:48;;;;;;;9.43;8.63;;;17.40;99.90;;;;;;5094321;28;20194;-75
2021/07/08 08:24:14;;;;;;;10.37;9.40;;;17.40;99.90;;;;;;5076739;28;20181;-75
2021/07/08 08:26:40;;;;;;;9.60;8.70;;;17.50;99.90;;;;;;5095039;28;20200;-75
2021/07/08 08:29:05;;;;;;;9.13;8.40;;;17.40;99.90;;;;;;5095397;28;20186;-75
2021/07/08 08:31:31;;;;;;;10.50;9.60;;;17.50;99.90;;;;;;5094277;28;20178;-76
2021/07/08 08:33:57;;;;;;;9.83;9.10;;;17.50;99.90;;;;;;5094903;28;20264;-76
2021/07/08 08:36:23;;;;;;;11.87;10.97;;;17.50;99.90;;;;;;5077175;28;20581;-76
2021/07/08 08:38:48;;;;;;;9.50;8.70;;;17.60;99.90;;;;;;5095229;28;20191;-75
2021/07/08 08:41:14;;;;;;;9.43;8.73;;;17.60;99.90;;;;;;5095348;28;20179;-75
2021/07/08 08:43:40;;;;;;;8.33;7.67;;;17.60;99.90;;;;;;5092972;28;20229;-75
2021/07/08 08:46:06;;;;;;;8.90;8.20;;;17.60;99.90;;;;;;5094996;28;20295;-75
2021/07/08 08:48:31;;;;;;;8.67;8.07;;;17.70;99.90;;;;;;5094689;28;20181;-75
2021/07/08 08:50:57;;;;;;;8.13;7.47;;;17.70;99.90;;;;;;5095266;28;20545;-76
2021/07/08 08:53:23;;;;;;;8.60;7.80;;;17.60;99.90;;;;;;5075029;28;20197;-77
2021/07/08 08:55:49;;;;;;;8.53;7.93;;;17.60;99.90;;;;;;5093400;28;20654;-75
2021/07/08 08:58:18;;;;;;;8.00;7.40;;;17.50;99.90;;;;;;5094778;28;20248;-75
2021/07/08 09:00:55;;;;;;;7.97;7.27;;;17.50;99.90;;;;;;5094676;28;20174;-75
2021/07/08 09:03:26;;;;;;;8.70;8.00;;;17.60;99.90;;;;;;5089521;28;20207;-75
2021/07/08 09:06:05;;;;;;;8.03;7.53;;;17.60;99.90;;;;;;5087109;28;20180;-75
2021/07/08 09:08:31;;;;;;;8.03;7.33;;;17.60;99.90;;;;;;5093590;28;20274;-76
2021/07/08 09:11:05;;;;;;;7.47;6.87;;;17.50;99.90;;;;;;5093711;28;20232;-76
2021/07/08 09:13:43;;;;;;;7.40;6.80;;;17.50;99.90;;;;;;5090969;28;20249;-75
2021/07/08 09:16:14;;;;;;;8.00;7.20;;;17.50;99.90;;;;;;5092875;28;20178;-76
2021/07/08 09:18:44;;;;;;;7.23;6.63;;;17.50;99.90;;;;;;5094628;28;20198;-78
2021/07/08 09:21:21;;;;;;;8.27;7.67;;;17.50;99.90;;;;;;5091042;28;20177;-76
2021/07/08 09:24:08;;;;;;;7.70;7.00;;;17.50;99.90;;;;;;5088799;28;20696;-76
2021/07/08 09:26:37;;;;;;;7.37;6.77;;;17.50;99.90;;;;;;5081785;28;20544;-78
2021/07/08 09:29:06;;;;;;;50.47;30.10;;;17.50;99.90;;;;;;5070034;28;20182;-79
2021/07/08 09:31:32;;;;;;;8.37;7.67;;;17.50;99.90;;;;;;5081644;28;20182;-77
2021/07/08 09:34:13;;;;;;;8.20;7.43;;;17.60;99.90;;;;;;5089865;28;20202;-75
2021/07/08 09:36:39;;;;;;;12.87;8.77;;;17.60;99.90;;;;;;5093274;28;20215;-77
2021/07/08 09:39:07;;;;;;;7.83;7.30;;;17.70;99.90;;;;;;5075130;28;20260;-76
2021/07/08 09:41:33;;;;;;;7.57;7.00;;;17.70;99.90;;;;;;5093826;28;20167;-75
2021/07/08 09:43:58;;;;;;;7.70;7.20;;;17.70;99.90;;;;;;5092544;28;20266;-75
2021/07/08 09:46:35;;;;;;;8.17;7.33;;;17.70;99.90;;;;;;5093784;28;20278;-75
2021/07/08 09:49:08;;;;;;;7.30;6.70;;;17.60;99.90;;;;;;5076891;28;20556;-75
2021/07/08 09:51:34;;;;;;;8.00;7.30;;;17.60;99.90;;;;;;5094246;28;20162;-76
2021/07/08 09:54:24;;;;;;;8.87;8.17;;;17.70;99.90;;;;;;5093101;28;20179;-76
2021/07/08 09:56:49;;;;;;;9.27;8.40;;;17.70;99.90;;;;;;5092615;28;20642;-75
2021/07/08 09:59:20;;;;;;;9.47;8.30;;;17.70;99.90;;;;;;5093713;28;20286;-74
2021/07/08 10:01:55;;;;;;;9.73;8.83;;;17.60;99.90;;;;;;5075593;28;20850;-75
2021/07/08 10:04:20;;;;;;;9.07;8.43;;;17.70;99.90;;;;;;5075130;28;20201;-76
2021/07/08 10:06:46;;;;;;;8.80;8.20;;;17.70;99.90;;;;;;5092688;28;20241;-76
2021/07/08 10:09:17;;;;;;;9.57;8.77;;;17.70;99.90;;;;;;5093508;28;20213;-75
2021/07/08 10:11:48;;;;;;;8.97;8.27;;;17.60;99.90;;;;;;5093598;28;20178;-76
2021/07/08 10:14:16;;;;;;;9.67;8.97;;;17.60;99.90;;;;;;5093410;28;20169;-76
2021/07/08 10:16:46;;;;;;;9.77;9.07;;;17.50;99.90;;;;;;5075282;28;20677;-77
2021/07/08 10:19:16;;;;;;;8.93;8.23;;;17.50;99.90;;;;;;5093687;28;20200;-75
2021/07/08 10:21:43;;;;;;;12.47;11.43;;;17.50;99.90;;;;;;5093365;28;20186;-75
2021/07/08 10:24:09;;;;;;;14.97;13.67;;;17.40;99.90;;;;;;5093322;28;20172;-75
2021/07/08 10:26:37;;;;;;;16.73;15.10;;;17.40;99.90;;;;;;5093388;28;20196;-75
2021/07/08 10:29:03;;;;;;;17.97;16.33;;;17.40;99.90;;;;;;5093409;28;20186;-75
2021/07/08 10:31:29;;;;;;;18.13;16.50;;;17.40;99.90;;;;;;5075112;28;20617;-75
2021/07/08 10:34:15;;;;;;;15.47;14.10;;;17.50;99.90;;;;;;5090252;28;20184;-76
2021/07/08 10:36:44;;;;;;;16.83;15.13;;;17.60;99.90;;;;;;5093670;28;20278;-76
2021/07/08 10:39:19;;;;;;;18.73;16.93;;;17.60;99.90;;;;;;5093303;28;20240;-75
2021/07/08 10:41:56;;;;;;;16.83;15.07;;;17.60;99.90;;;;;;5098525;28;20173;-77
2021/07/08 10:44:45;;;;;;;18.07;16.17;;;17.60;99.90;;;;;;5069985;28;20175;-76
2021/07/08 10:47:35;;;;;;;16.90;15.40;;;17.60;99.90;;;;;;5088209;28;20681;-75
2021/07/08 10:50:03;;;;;;;18.07;16.17;;;17.70;99.90;;;;;;5089962;28;20171;-76
2021/07/08 10:52:48;;;;;;;15.90;14.50;;;17.70;99.90;;;;;;5089980;28;20179;-76
2021/07/08 10:55:38;;;;;;;16.67;14.93;;;17.70;99.90;;;;;;5075489;28;20181;-77
2021/07/08 10:58:04;;;;;;;15.93;14.53;;;17.70;99.90;;;;;;5066110;28;20303;-77
2021/07/08 11:00:49;;;;;;;22.73;13.67;;;17.60;99.90;;;;;;5095282;28;20560;-74
2021/07/08 11:03:38;;;;;;;15.47;13.93;;;17.70;99.90;;;;;;5094435;28;20178;-76
2021/07/08 11:06:17;;;;;;;16.40;14.67;;;17.70;99.90;;;;;;5090427;28;20167;-76
2021/07/08 11:08:49;;;;;;;17.77;15.60;;;17.70;99.90;;;;;;5094851;28;20663;-75
2021/07/08 11:11:23;;;;;;;17.00;15.20;;;17.70;99.90;;;;;;5095890;28;20186;-75
2021/07/08 11:13:54;;;;;;;17.03;14.77;;;17.70;99.90;;;;;;5096112;28;20179;-77
2021/07/08 11:16:38;;;;;;;17.00;15.00;;;17.70;99.90;;;;;;5077933;28;20198;-75
2021/07/08 11:19:04;;;;;;;16.00;14.50;;;17.70;99.90;;;;;;5094085;28;20276;-76
2021/07/08 11:21:48;;;;;;;15.17;13.73;;;17.80;99.90;;;;;;5089330;28;20239;-82
2021/07/08 11:24:28;;;;;;;11.50;10.40;;;17.80;99.90;;;;;;5096611;28;20656;-82
2021/07/08 11:26:54;;;;;;;12.17;11.10;;;17.80;99.90;;;;;;5097225;28;20195;-83
2021/07/08 11:29:36;;;;;;;11.70;10.70;;;17.80;99.90;;;;;;5098338;28;20640;-82
2021/07/08 11:32:22;;;;;;;11.30;10.30;;;17.80;99.90;;;;;;5080900;28;20182;-81
2021/07/08 11:34:59;;;;;;;11.93;10.33;;;17.80;99.90;;;;;;5098902;28;20182;-81
2021/07/08 11:37:39;;;;;;;12.67;11.67;;;17.80;99.90;;;;;;5080255;28;20216;-80
2021/07/08 11:40:09;;;;;;;14.10;12.80;;;17.80;99.90;;;;;;5098597;28;20572;-82
2021/07/08 11:42:38;;;;;;;16.87;12.30;;;17.90;99.90;;;;;;5080457;28;20178;-82
2021/07/08 11:45:09;;;;;;;14.47;12.97;;;17.90;99.90;;;;;;5080275;28;20264;-82
2021/07/08 11:47:40;;;;;;;15.50;12.63;;;17.90;99.90;;;;;;5098673;28;20281;-82
2021/07/08 11:50:21;;;;;;;13.73;12.40;;;17.90;99.90;;;;;;5098516;28;20179;-82
2021/07/08 11:53:03;;;;;;;11.80;10.70;;;18.00;99.90;;;;;;5098427;28;20582;-82
2021/07/08 11:55:29;;;;;;;11.87;10.77;;;18.00;99.90;;;;;;5069695;28;20258;-82
2021/07/08 11:57:59;;;;;;;10.53;9.63;;;18.10;99.90;;;;;;5060006;28;20348;-82
2021/07/08 12:00:38;;;;;;;10.33;9.27;;;18.10;99.90;;;;;;5078388;28;20187;-82
2021/07/08 12:03:35;;;;;;;10.17;9.27;;;18.10;99.90;;;;;;5060013;28;20187;-82
2021/07/08 12:06:09;;;;;;;9.70;8.83;;;18.10;99.90;;;;;;5076521;28;20192;-82
2021/07/08 12:08:47;;;;;;;8.33;7.67;;;18.20;99.90;;;;;;5066591;28;20270;-82
2021/07/08 12:11:20;;;;;;;7.97;7.37;;;18.20;99.90;;;;;;5098621;28;20577;-83
2021/07/08 12:13:50;;;;;;;8.10;7.37;;;18.20;99.90;;;;;;5098646;28;20203;-82
2021/07/08 12:16:19;;;;;;;10.00;8.50;;;18.30;99.90;;;;;;5098150;28;20231;-82
2021/07/08 12:18:51;;;;;;;8.73;7.93;;;18.30;99.90;;;;;;5098460;28;20199;-82
2021/07/08 12:21:24;;;;;;;6.70;6.20;;;18.60;99.90;;;;;;5098007;28;20328;-82
2021/07/08 12:23:52;;;;;;;5.10;4.80;;;18.70;99.90;;;;;;5080071;28;20554;-82
2021/07/08 12:26:31;;;;;;;5.30;4.87;;;18.60;99.90;;;;;;5080304;28;20207;-79
2021/07/08 12:29:14;;;;;;;5.37;4.97;;;18.70;99.90;;;;;;5096503;28;20180;-82
2021/07/08 12:31:47;;;;;;;6.37;5.13;;;18.80;99.90;;;;;;5078804;28;20555;-83
2021/07/08 12:34:13;;;;;;;4.83;4.53;;;18.80;99.90;;;;;;5078808;28;20292;-82
2021/07/08 12:36:39;;;;;;;5.40;4.90;;;18.70;99.90;;;;;;5086594;22;20227;-79
2021/07/08 12:39:05;;;;;;;3.77;3.40;;;18.80;99.90;;;;;;5097871;28;20268;-79
2021/07/08 12:41:32;;;;;;;3.77;3.47;;;18.70;99.90;;;;;;5079372;28;20263;-79
2021/07/08 12:43:59;;;;;;;5.53;3.20;;;18.70;99.90;;;;;;5097537;28;20175;-79
2021/07/08 12:46:31;;;;;;;3.93;3.63;;;18.70;99.90;;;;;;5098415;28;20641;-79
2021/07/08 12:48:57;;;;;;;5.53;3.10;;;18.80;99.90;;;;;;5077160;28;20668;-79
2021/07/08 12:51:23;;;;;;;3.57;3.30;;;18.90;99.90;;;;;;5077164;28;20260;-79